createdAt,value
2023-01-19T00:00:52.110Z,99506.06
2023-01-19T00:03:18.602Z,99511.06
2023-01-19T00:05:45.372Z,99504.56
2023-01-19T00:08:15.271Z,99497.34
2023-01-19T00:10:46.710Z,99505.72
2023-01-19T00:13:14.429Z,99509.19
2023-01-19T00:15:40.910Z,99500.50
2023-01-19T00:18:09.695Z,99502.78
2023-01-19T00:20:37.542Z,99505.81
2023-01-19T00:23:04.699Z,99508.38
2023-01-19T00:25:31.180Z,99504.28
2023-01-19T00:27:58.893Z,99504.75
2023-01-19T00:30:26.888Z,99516.06
2023-01-19T00:32:53.339Z,99512.47
2023-01-19T00:35:19.912Z,99510.22
2023-01-19T00:37:46.349Z,99511.28
2023-01-19T00:40:13.944Z,99515.13
2023-01-19T00:42:40.445Z,99517.56
2023-01-19T00:45:09.230Z,99513.25
2023-01-19T00:47:35.870Z,99513.47
2023-01-19T00:50:03.446Z,99517.06
2023-01-19T00:52:29.861Z,99517.63
2023-01-19T00:54:56.303Z,99516.59
2023-01-19T00:57:23.516Z,99517.19
2023-01-19T00:59:50.084Z,99508.34
2023-01-19T01:02:16.707Z,99513.06
2023-01-19T01:04:43.300Z,99513.63
2023-01-19T01:07:09.732Z,99514.06
2023-01-19T01:09:36.520Z,99512.09
2023-01-19T01:12:03.587Z,99506.66
2023-01-19T01:14:32.423Z,99490.41
2023-01-19T01:16:58.928Z,99506.78
2023-01-19T01:19:25.323Z,99497.41
2023-01-19T01:21:51.795Z,99506.94
2023-01-19T01:24:18.764Z,99497.63
2023-01-19T01:26:45.174Z,99495.09
2023-01-19T01:29:11.787Z,99497.31
2023-01-19T01:31:38.549Z,99498.25
2023-01-19T01:34:05.679Z,99515.72
2023-01-19T01:36:33.393Z,99514.97
2023-01-19T01:39:00.223Z,99521.88
2023-01-19T01:41:27.451Z,99523.25
2023-01-19T01:43:58.431Z,99527.09
2023-01-19T01:46:26.791Z,99527.09
2023-01-19T01:49:12.027Z,99525.47
2023-01-19T01:51:52.192Z,99516.28
2023-01-19T01:54:33.476Z,99517.78
2023-01-19T01:57:04.066Z,99510.38
2023-01-19T01:59:39.285Z,99518.75
2023-01-19T02:02:51.467Z,99514.69
2023-01-19T02:05:33.501Z,99513.53
2023-01-19T02:08:45.043Z,99512.00
2023-01-19T02:11:30.133Z,99503.66
2023-01-19T02:13:56.962Z,99516.78
2023-01-19T02:16:23.533Z,99503.19
2023-01-19T02:18:49.952Z,99510.25
2023-01-19T02:21:23.702Z,99509.13
2023-01-19T02:23:58.112Z,99510.50
2023-01-19T02:26:30.959Z,99512.38
2023-01-19T02:29:08.462Z,99505.28
2023-01-19T02:31:37.305Z,99498.09
2023-01-19T02:34:05.983Z,99496.34
2023-01-19T02:36:41.025Z,99506.78
2023-01-19T02:39:09.610Z,99497.72
2023-01-19T02:41:45.263Z,99503.75
2023-01-19T02:44:14.212Z,99515.22
2023-01-19T02:46:41.052Z,99511.13
2023-01-19T02:49:07.821Z,99504.03
2023-01-19T02:51:35.307Z,99519.31
2023-01-19T02:54:05.096Z,99506.75
2023-01-19T02:56:47.421Z,99508.28
2023-01-19T02:59:31.002Z,99505.81
2023-01-19T03:02:19.427Z,99501.19
2023-01-19T03:04:57.445Z,99508.84
2023-01-19T03:07:54.694Z,99504.31
2023-01-19T03:10:42.650Z,99498.34
2023-01-19T03:13:27.781Z,99513.66
2023-01-19T03:16:11.464Z,99509.22
2023-01-19T03:18:40.301Z,99506.53
2023-01-19T03:21:08.672Z,99505.56
2023-01-19T03:23:40.490Z,99502.97
2023-01-19T03:26:10.859Z,99504.34
2023-01-19T03:28:40.995Z,99508.16
2023-01-19T03:31:34.384Z,99500.97
2023-01-19T03:34:06.811Z,99500.63
2023-01-19T03:36:37.605Z,99503.31
2023-01-19T03:39:06.810Z,99504.19
2023-01-19T03:41:35.516Z,99509.53
2023-01-19T03:44:03.381Z,99511.09
2023-01-19T03:46:31.455Z,99514.50
2023-01-19T03:48:58.531Z,99507.84
2023-01-19T03:51:24.944Z,99510.34
2023-01-19T03:53:51.459Z,99506.63
2023-01-19T03:56:19.123Z,99495.91
2023-01-19T03:58:45.934Z,99502.66
2023-01-19T04:01:14.860Z,99502.59
2023-01-19T04:03:42.205Z,99509.78
2023-01-19T04:06:09.588Z,99498.28
2023-01-19T04:08:36.929Z,99498.19
2023-01-19T04:11:03.459Z,99491.88
2023-01-19T04:13:31.426Z,99495.75
2023-01-19T04:16:02.314Z,99494.47
2023-01-19T04:18:31.940Z,99504.03
2023-01-19T04:21:02.201Z,99501.19
2023-01-19T04:23:28.969Z,99492.03
2023-01-19T04:25:59.200Z,99501.13
2023-01-19T04:28:26.131Z,99482.69
2023-01-19T04:30:52.645Z,99495.09
2023-01-19T04:33:19.869Z,99494.88
2023-01-19T04:35:47.342Z,99493.72
2023-01-19T04:38:13.786Z,99490.94
2023-01-19T04:40:40.517Z,99480.72
2023-01-19T04:43:07.876Z,99496.72
2023-01-19T04:45:34.418Z,99490.16
2023-01-19T04:48:01.234Z,99486.25
2023-01-19T04:50:27.601Z,99489.28
2023-01-19T04:52:53.998Z,99490.81
2023-01-19T04:55:20.435Z,99486.91
2023-01-19T04:57:46.845Z,99480.88
2023-01-19T05:00:13.621Z,99489.81
2023-01-19T05:02:42.147Z,99488.75
2023-01-19T05:05:08.910Z,99483.22
2023-01-19T05:07:35.811Z,99487.06
2023-01-19T05:10:02.386Z,99485.84
2023-01-19T05:12:28.778Z,99483.41
2023-01-19T05:14:55.249Z,99493.22
2023-01-19T05:17:22.375Z,99492.66
2023-01-19T05:19:48.996Z,99492.50
2023-01-19T05:22:16.186Z,99498.03
2023-01-19T05:24:42.736Z,99489.50
2023-01-19T05:27:09.404Z,99496.97
2023-01-19T05:29:35.894Z,99484.94
2023-01-19T05:32:02.889Z,99494.34
2023-01-19T05:34:29.537Z,99487.63
2023-01-19T05:36:56.644Z,99486.81
2023-01-19T05:39:23.042Z,99495.47
2023-01-19T05:41:49.462Z,99495.09
2023-01-19T05:44:15.888Z,99505.31
2023-01-19T05:46:42.397Z,99495.97
2023-01-19T05:49:08.993Z,99499.97
2023-01-19T05:51:38.059Z,99490.25
2023-01-19T05:54:06.115Z,99496.28
2023-01-19T05:56:33.109Z,99505.72
2023-01-19T05:59:00.540Z,99497.91
2023-01-19T06:01:28.204Z,99493.44
2023-01-19T06:03:55.094Z,99509.44
2023-01-19T06:06:21.540Z,99503.09
2023-01-19T06:08:48.147Z,99493.00
2023-01-19T06:11:14.580Z,99503.00
2023-01-19T06:13:42.255Z,99497.88
2023-01-19T06:16:10.453Z,99491.78
2023-01-19T06:18:37.123Z,99515.28
2023-01-19T06:21:08.548Z,99510.09
2023-01-19T06:23:36.450Z,99507.91
2023-01-19T06:26:03.786Z,99516.31
2023-01-19T06:28:30.510Z,99525.16
2023-01-19T06:30:57.365Z,99512.28
2023-01-19T06:33:24.808Z,99514.69
2023-01-19T06:35:51.862Z,99521.13
2023-01-19T06:38:19.370Z,99513.19
2023-01-19T06:40:51.536Z,99515.94
2023-01-19T06:43:18.199Z,99518.63
2023-01-19T06:45:46.101Z,99516.00
2023-01-19T06:48:12.658Z,99521.94
2023-01-19T06:50:39.235Z,99525.59
2023-01-19T06:53:05.792Z,99513.25
2023-01-19T06:55:32.282Z,99530.44
2023-01-19T06:57:59.373Z,99530.38
2023-01-19T07:00:26.107Z,99537.78
2023-01-19T07:02:52.838Z,99540.06
2023-01-19T07:05:19.364Z,99535.09
2023-01-19T07:07:51.935Z,99539.75
2023-01-19T07:10:18.634Z,99541.66
2023-01-19T07:12:47.112Z,99535.00
2023-01-19T07:15:19.598Z,99542.41
2023-01-19T07:17:46.270Z,99554.31
2023-01-19T07:20:14.294Z,99557.50
2023-01-19T07:22:43.477Z,99561.63
2023-01-19T07:25:10.206Z,99559.63
2023-01-19T07:27:36.935Z,99550.28
2023-01-19T07:30:04.607Z,99564.25
2023-01-19T07:32:31.159Z,99569.22
2023-01-19T07:34:57.634Z,99567.66
2023-01-19T07:37:24.101Z,99576.66
2023-01-19T07:39:50.511Z,99573.63
2023-01-19T07:42:17.004Z,99582.34
2023-01-19T07:44:43.462Z,99580.81
2023-01-19T07:47:12.533Z,99581.03
2023-01-19T07:49:39.729Z,99586.72
2023-01-19T07:52:06.220Z,99581.13
2023-01-19T07:54:33.057Z,99582.69
2023-01-19T07:57:00.903Z,99591.84
2023-01-19T07:59:30.085Z,99589.22
2023-01-19T08:01:59.158Z,99588.84
2023-01-19T08:04:27.305Z,99599.63
2023-01-19T08:06:55.044Z,99607.69
2023-01-19T08:09:21.633Z,99606.56
2023-01-19T08:11:48.208Z,99612.41
2023-01-19T08:14:14.652Z,99607.34
2023-01-19T08:16:41.124Z,99607.03
2023-01-19T08:19:08.008Z,99609.41
2023-01-19T08:21:35.925Z,99601.59
2023-01-19T08:24:02.737Z,99604.91
2023-01-19T08:26:33.605Z,99606.28
2023-01-19T08:29:03.857Z,99617.75
2023-01-19T08:31:31.230Z,99617.34
2023-01-19T08:33:58.065Z,99621.78
2023-01-19T08:36:25.062Z,99623.03
2023-01-19T08:38:52.120Z,99621.56
2023-01-19T08:41:18.769Z,99623.66
2023-01-19T08:43:45.378Z,99636.25
2023-01-19T08:46:12.652Z,99637.22
2023-01-19T08:48:39.997Z,99638.84
2023-01-19T08:51:06.693Z,99635.59
2023-01-19T08:53:33.190Z,99640.53
2023-01-19T08:56:02.576Z,99642.97
2023-01-19T08:58:29.440Z,99642.63
2023-01-19T09:00:56.241Z,99646.53
2023-01-19T09:03:22.993Z,99650.69
2023-01-19T09:05:50.325Z,99654.63
2023-01-19T09:08:17.098Z,99664.41
2023-01-19T09:10:49.426Z,99660.00
2023-01-19T09:13:16.823Z,99665.16
2023-01-19T09:15:44.340Z,99663.66
2023-01-19T09:18:13.876Z,99671.47
2023-01-19T09:20:42.571Z,99673.13
2023-01-19T09:23:16.632Z,99668.91
2023-01-19T09:25:45.610Z,99673.66
2023-01-19T09:28:14.654Z,99676.16
2023-01-19T09:30:42.579Z,99677.59
2023-01-19T09:33:12.417Z,99684.94
2023-01-19T09:35:39.971Z,99686.88
2023-01-19T09:38:08.895Z,99690.59
2023-01-19T09:40:42.083Z,99700.16
2023-01-19T09:43:13.076Z,99706.34
2023-01-19T09:46:01.253Z,99709.50
2023-01-19T09:48:47.314Z,99710.91
2023-01-19T09:51:25.136Z,99708.34
2023-01-19T09:53:56.267Z,99713.22
2023-01-19T09:56:23.344Z,99709.63
2023-01-19T09:58:51.366Z,99714.47
2023-01-19T10:01:34.871Z,99710.25
2023-01-19T10:04:15.432Z,99720.25
2023-01-19T10:06:43.217Z,99726.06
2023-01-19T10:09:35.011Z,99715.94
2023-01-19T10:12:10.692Z,99721.97
2023-01-19T10:14:45.412Z,99723.03
2023-01-19T10:17:30.030Z,99714.16
2023-01-19T10:19:58.470Z,99720.91
2023-01-19T10:22:28.445Z,99717.88
2023-01-19T10:24:57.048Z,99718.56
2023-01-19T10:27:28.257Z,99720.22
2023-01-19T10:29:54.801Z,99716.69
2023-01-19T10:32:31.387Z,99725.19
2023-01-19T10:34:59.445Z,99723.03
2023-01-19T10:37:31.719Z,99732.34
2023-01-19T10:40:07.720Z,99731.34
2023-01-19T10:42:41.919Z,99735.25
2023-01-19T10:45:22.798Z,99734.06
2023-01-19T10:47:50.102Z,99727.91
2023-01-19T10:50:29.055Z,99732.31
2023-01-19T10:52:59.341Z,99741.72
2023-01-19T10:55:30.525Z,99737.75
2023-01-19T10:57:58.742Z,99739.19
2023-01-19T11:00:31.003Z,99738.25
2023-01-19T11:02:57.535Z,99740.53
2023-01-19T11:05:27.483Z,99746.03
2023-01-19T11:07:54.151Z,99743.63
2023-01-19T11:10:22.994Z,99743.06
2023-01-19T11:13:01.760Z,99746.13
2023-01-19T11:15:35.790Z,99746.84
2023-01-19T11:18:05.053Z,99744.06
2023-01-19T11:20:44.008Z,99740.69
2023-01-19T11:23:22.614Z,99755.28
2023-01-19T11:25:50.921Z,99754.41
2023-01-19T11:28:27.308Z,99762.97
2023-01-19T11:30:59.231Z,99756.72
2023-01-19T11:33:33.581Z,99763.88
2023-01-19T11:36:06.519Z,99761.09
2023-01-19T11:38:40.875Z,99764.50
2023-01-19T11:41:27.101Z,99764.28
2023-01-19T11:44:15.968Z,99760.56
2023-01-19T11:46:45.928Z,99763.34
2023-01-19T11:49:37.402Z,99762.19
2023-01-19T11:52:19.731Z,99767.22
2023-01-19T11:55:14.943Z,99767.56
2023-01-19T11:57:47.662Z,99767.13
2023-01-19T12:00:54.976Z,99771.78
2023-01-19T12:03:32.850Z,99775.38
2023-01-19T12:06:05.790Z,99768.59
2023-01-19T12:08:44.759Z,99778.03
2023-01-19T12:11:18.403Z,99774.56
2023-01-19T12:13:46.480Z,99780.50
2023-01-19T12:16:21.119Z,99778.97
2023-01-19T12:18:53.203Z,99776.53
2023-01-19T12:21:21.018Z,99779.06
2023-01-19T12:24:05.222Z,99773.38
2023-01-19T12:26:46.744Z,99778.63
2023-01-19T12:29:17.194Z,99783.06
2023-01-19T12:31:43.846Z,99783.50
2023-01-19T12:34:26.036Z,99786.19
2023-01-19T12:36:55.731Z,99787.56
2023-01-19T12:39:23.038Z,99784.31
2023-01-19T12:42:08.132Z,99782.81
2023-01-19T12:44:35.031Z,99783.50
2023-01-19T12:47:20.067Z,99791.19
2023-01-19T12:49:51.079Z,99793.16
2023-01-19T12:52:30.837Z,99796.41
2023-01-19T12:55:01.960Z,99793.00
2023-01-19T12:57:46.449Z,99798.69
2023-01-19T13:00:22.010Z,99809.28
2023-01-19T13:02:50.169Z,99809.19
2023-01-19T13:05:19.074Z,99812.06
2023-01-19T13:08:11.406Z,99812.16
2023-01-19T13:11:13.716Z,99819.13
2023-01-19T13:13:49.337Z,99821.63
2023-01-19T13:16:18.818Z,99827.59
2023-01-19T13:19:07.197Z,99827.31
2023-01-19T13:21:44.637Z,99823.38
2023-01-19T13:24:16.914Z,99827.84
2023-01-19T13:26:55.536Z,99825.53
2023-01-19T13:29:34.305Z,99820.59
2023-01-19T13:32:04.543Z,99831.25
2023-01-19T13:34:40.346Z,99833.28
2023-01-19T13:37:15.844Z,99832.16
2023-01-19T13:39:44.416Z,99846.03
2023-01-19T13:42:30.185Z,99840.03
2023-01-19T13:45:00.899Z,99846.88
2023-01-19T13:47:41.854Z,99840.91
2023-01-19T13:50:30.280Z,99856.13
2023-01-19T13:52:58.803Z,99856.69
2023-01-19T13:55:30.343Z,99860.88
2023-01-19T13:57:57.525Z,99861.88
2023-01-19T14:00:26.525Z,99860.72
2023-01-19T14:02:55.042Z,99865.38
2023-01-19T14:05:23.385Z,99877.66
2023-01-19T14:08:02.663Z,99860.47
2023-01-19T14:10:31.243Z,99867.25
2023-01-19T14:13:00.071Z,99872.63
2023-01-19T14:15:29.613Z,99874.38
2023-01-19T14:18:30.086Z,99879.28
2023-01-19T14:21:03.635Z,99883.75
2023-01-19T14:23:52.548Z,99880.03
2023-01-19T14:26:37.657Z,99881.63
2023-01-19T14:29:23.177Z,99886.13
2023-01-19T14:32:00.065Z,99886.44
2023-01-19T14:34:45.876Z,99895.81
2023-01-19T14:37:23.253Z,99894.97
2023-01-19T14:40:08.815Z,99901.81
2023-01-19T14:42:39.256Z,99906.88
2023-01-19T14:45:21.908Z,99910.59
2023-01-19T14:48:01.014Z,99910.28
2023-01-19T14:50:36.111Z,99922.34
2023-01-19T14:53:13.788Z,99916.28
2023-01-19T14:55:52.125Z,99931.50
2023-01-19T14:58:21.306Z,99925.06
2023-01-19T15:00:48.947Z,99939.66
2023-01-19T15:03:15.809Z,99934.44
2023-01-19T15:05:44.905Z,99939.72
2023-01-19T15:08:16.323Z,99944.59
2023-01-19T15:10:43.596Z,99950.63
2023-01-19T15:13:19.808Z,99956.28
2023-01-19T15:15:46.718Z,99954.97
2023-01-19T15:18:16.727Z,99951.88
2023-01-19T15:20:43.202Z,99964.94
2023-01-19T15:23:11.066Z,99969.56
2023-01-19T15:25:39.515Z,99970.97
2023-01-19T15:28:11.870Z,99979.59
2023-01-19T15:30:38.939Z,99981.50
2023-01-19T15:33:06.368Z,99985.59
2023-01-19T15:35:32.791Z,99984.56
2023-01-19T15:37:59.202Z,99989.13
2023-01-19T15:40:25.670Z,99995.75
2023-01-19T15:42:52.142Z,99996.59
2023-01-19T15:45:43.359Z,99993.44
2023-01-19T15:48:11.587Z,99998.91
2023-01-19T15:50:41.070Z,100006.72
2023-01-19T15:53:12.948Z,100005.59
2023-01-19T15:55:39.393Z,100006.41
2023-01-19T15:58:06.116Z,100010.84
2023-01-19T16:00:34.532Z,100023.63
2023-01-19T16:03:02.766Z,100016.22
2023-01-19T16:05:41.878Z,100015.13
2023-01-19T16:08:09.546Z,100024.25
2023-01-19T16:10:36.200Z,100024.81
2023-01-19T16:13:04.011Z,100027.03
2023-01-19T16:15:30.421Z,100032.03
2023-01-19T16:17:56.808Z,100029.72
2023-01-19T16:20:23.260Z,100034.34
2023-01-19T16:22:49.699Z,100026.44
2023-01-19T16:25:16.223Z,100030.41
2023-01-19T16:27:43.069Z,100038.00
2023-01-19T16:30:11.921Z,100037.16
2023-01-19T16:32:38.733Z,100038.44
2023-01-19T16:35:05.819Z,100044.50
2023-01-19T16:37:32.242Z,100050.06
2023-01-19T16:39:58.809Z,100053.44
2023-01-19T16:42:25.637Z,100054.97
2023-01-19T16:44:52.086Z,100057.75
2023-01-19T16:47:18.593Z,100055.75
2023-01-19T16:49:44.979Z,100061.34
2023-01-19T16:52:11.455Z,100064.13
2023-01-19T16:54:43.500Z,100070.66
2023-01-19T16:57:11.173Z,100076.69
2023-01-19T16:59:39.478Z,100073.97
2023-01-19T17:02:06.431Z,100076.88
2023-01-19T17:04:32.963Z,100074.06
2023-01-19T17:06:59.410Z,100078.66
2023-01-19T17:09:25.822Z,100091.75
2023-01-19T17:11:52.224Z,100090.44
2023-01-19T17:14:22.922Z,100100.38
2023-01-19T17:16:49.481Z,100101.00
2023-01-19T17:19:18.378Z,100101.81
2023-01-19T17:21:46.355Z,100100.00
2023-01-19T17:24:12.962Z,100099.13
2023-01-19T17:26:39.519Z,100108.09
2023-01-19T17:29:08.592Z,100104.03
2023-01-19T17:31:36.274Z,100100.16
2023-01-19T17:34:02.918Z,100113.47
2023-01-19T17:36:31.368Z,100111.72
2023-01-19T17:39:00.182Z,100116.75
2023-01-19T17:41:29.656Z,100122.78
2023-01-19T17:43:56.375Z,100119.44
2023-01-19T17:46:25.813Z,100127.38
2023-01-19T17:48:57.322Z,100135.09
2023-01-19T17:51:24.362Z,100128.72
2023-01-19T17:53:52.114Z,100132.94
2023-01-19T17:56:25.763Z,100131.25
2023-01-19T17:58:52.172Z,100130.75
2023-01-19T18:01:22.393Z,100134.59
2023-01-19T18:03:49.412Z,100136.28
2023-01-19T18:06:16.663Z,100137.19
2023-01-19T18:08:46.184Z,100138.38
2023-01-19T18:11:13.652Z,100140.78
2023-01-19T18:13:43.501Z,100148.41
2023-01-19T18:16:14.028Z,100144.13
2023-01-19T18:18:41.025Z,100149.63
2023-01-19T18:21:09.637Z,100148.34
2023-01-19T18:23:36.629Z,100149.84
2023-01-19T18:26:10.527Z,100159.25
2023-01-19T18:28:37.776Z,100157.28
2023-01-19T18:31:08.907Z,100161.25
2023-01-19T18:33:35.625Z,100166.97
2023-01-19T18:36:02.117Z,100169.59
2023-01-19T18:38:28.727Z,100166.41
2023-01-19T18:41:01.869Z,100169.16
2023-01-19T18:43:29.104Z,100175.63
2023-01-19T18:45:55.743Z,100167.16
2023-01-19T18:48:22.271Z,100165.31
2023-01-19T18:50:48.785Z,100163.44
2023-01-19T18:53:15.278Z,100168.94
2023-01-19T18:55:52.920Z,100172.41
2023-01-19T18:58:19.867Z,100173.41
2023-01-19T19:00:46.672Z,100172.94
2023-01-19T19:03:13.385Z,100179.03
2023-01-19T19:05:40.217Z,100186.09
2023-01-19T19:08:06.799Z,100183.19
2023-01-19T19:10:33.288Z,100192.44
2023-01-19T19:12:59.800Z,100189.38
2023-01-19T19:15:27.134Z,100192.13
2023-01-19T19:17:54.466Z,100189.97
2023-01-19T19:20:22.622Z,100197.47
2023-01-19T19:22:49.419Z,100190.91
2023-01-19T19:25:16.098Z,100202.66
2023-01-19T19:27:45.281Z,100196.53
2023-01-19T19:30:13.470Z,100198.72
2023-01-19T19:32:40.100Z,100199.69
2023-01-19T19:35:06.756Z,100196.63
2023-01-19T19:37:33.225Z,100193.00
2023-01-19T19:39:59.951Z,100195.94
2023-01-19T19:42:26.392Z,100206.50
2023-01-19T19:44:52.823Z,100212.44
2023-01-19T19:47:19.343Z,100211.19
2023-01-19T19:49:45.814Z,100215.69
2023-01-19T19:52:12.224Z,100210.28
2023-01-19T19:54:38.782Z,100211.22
2023-01-19T19:57:05.287Z,100217.22
2023-01-19T19:59:31.755Z,100216.97
2023-01-19T20:01:58.426Z,100222.84
2023-01-19T20:04:25.328Z,100229.47
2023-01-19T20:06:52.509Z,100221.53
2023-01-19T20:09:18.957Z,100234.91
2023-01-19T20:11:46.642Z,100232.03
2023-01-19T20:14:14.268Z,100229.53
2023-01-19T20:16:40.798Z,100233.69
2023-01-19T20:19:07.779Z,100231.09
2023-01-19T20:21:39.886Z,100229.91
2023-01-19T20:24:10.033Z,100245.47
2023-01-19T20:26:40.657Z,100241.34
2023-01-19T20:29:07.815Z,100245.69
2023-01-19T20:31:37.360Z,100253.84
2023-01-19T20:34:05.966Z,100259.19
2023-01-19T20:36:33.333Z,100262.09
2023-01-19T20:39:00.647Z,100263.34
2023-01-19T20:41:29.462Z,100268.16
2023-01-19T20:43:55.871Z,100272.47
2023-01-19T20:46:22.434Z,100269.63
2023-01-19T20:48:52.797Z,100271.25
2023-01-19T20:51:20.232Z,100274.38
2023-01-19T20:53:47.384Z,100276.44
2023-01-19T20:56:14.930Z,100279.66
2023-01-19T20:58:41.997Z,100292.47
2023-01-19T21:01:15.404Z,100281.56
2023-01-19T21:03:42.307Z,100281.41
2023-01-19T21:06:09.801Z,100286.16
2023-01-19T21:08:37.068Z,100295.16
2023-01-19T21:11:05.591Z,100296.19
2023-01-19T21:13:32.576Z,100298.84
2023-01-19T21:16:00.044Z,100305.63
2023-01-19T21:18:27.917Z,100308.97
2023-01-19T21:20:57.379Z,100310.81
2023-01-19T21:23:25.443Z,100318.69
2023-01-19T21:25:53.423Z,100318.97
2023-01-19T21:28:21.616Z,100324.09
2023-01-19T21:30:48.716Z,100327.66
2023-01-19T21:33:16.102Z,100323.53
2023-01-19T21:35:55.593Z,100333.06
2023-01-19T21:38:23.849Z,100338.19
2023-01-19T21:40:50.289Z,100333.50
2023-01-19T21:43:19.131Z,100333.53
2023-01-19T21:45:46.947Z,100339.94
2023-01-19T21:48:13.865Z,100346.91
2023-01-19T21:50:40.316Z,100337.59
2023-01-19T21:53:09.743Z,100350.38
2023-01-19T21:55:36.604Z,100358.38
2023-01-19T21:58:08.077Z,100349.34
2023-01-19T22:00:34.578Z,100356.19
2023-01-19T22:03:04.124Z,100364.63
2023-01-19T22:05:36.625Z,100373.03
2023-01-19T22:08:05.127Z,100364.63
2023-01-19T22:10:34.547Z,100376.56
2023-01-19T22:13:01.168Z,100378.66
2023-01-19T22:15:28.145Z,100375.94
2023-01-19T22:17:54.550Z,100380.88
2023-01-19T22:20:20.984Z,100384.97
2023-01-19T22:22:47.435Z,100377.38
2023-01-19T22:25:14.957Z,100387.03
2023-01-19T22:27:42.147Z,100387.03
2023-01-19T22:30:09.251Z,100392.78
2023-01-19T22:32:35.801Z,100391.34
2023-01-19T22:35:04.002Z,100394.78
2023-01-19T22:37:35.106Z,100403.97
2023-01-19T22:40:06.499Z,100395.34
2023-01-19T22:42:33.262Z,100395.56
2023-01-19T22:44:59.688Z,100404.44
2023-01-19T22:47:26.072Z,100412.88
2023-01-19T22:49:52.488Z,100413.28
2023-01-19T22:52:19.092Z,100407.28
2023-01-19T22:54:45.611Z,100406.91
2023-01-19T22:57:12.117Z,100413.03
2023-01-19T22:59:38.600Z,100412.59
2023-01-19T23:02:05.347Z,100411.47
2023-01-19T23:04:31.968Z,100419.19
2023-01-19T23:06:58.345Z,100409.78
2023-01-19T23:12:15.062Z,100412.25
2023-01-19T23:14:41.480Z,100413.25
2023-01-19T23:17:08.799Z,100419.66
2023-01-19T23:19:35.514Z,100428.69
2023-01-19T23:22:02.032Z,100421.09
2023-01-19T23:24:28.543Z,100434.06
2023-01-19T23:26:54.958Z,100434.69
2023-01-19T23:29:21.417Z,100432.00
2023-01-19T23:31:50.297Z,100437.34
2023-01-19T23:34:17.098Z,100435.09
2023-01-19T23:36:43.752Z,100446.81
2023-01-19T23:39:19.043Z,100448.06
2023-01-19T23:41:46.079Z,100445.97
2023-01-19T23:44:13.120Z,100449.69
2023-01-19T23:46:39.931Z,100452.56
2023-01-19T23:49:06.474Z,100461.00
2023-01-19T23:51:33.461Z,100464.06
2023-01-19T23:54:00.609Z,100463.47
2023-01-19T23:56:30.377Z,100460.00
2023-01-19T23:59:03.919Z,100466.94
